Time;durP1;ratioP1;P1;durP2;ratioP2;P2;SDS_P1;SDS_P2;PMS_P1;PMS_P2;Temp;Humidity;BMP_temperature;BMP_pressure;BME280_temperature;BME280_humidity;BME280_pressure;Samples;Min_cycle;Max_cycle;Signal;HPM_P1;HPM_P2
2022/08/07 00:01:12;;;;;;;7.92;7.12;;;;;;;16.64;82.59;99309.38;1619836;87;26522;-59
2022/08/07 00:03:38;;;;;;;8.85;7.70;;;;;;;16.57;82.89;99316.03;1621127;88;25434;-59
2022/08/07 00:06:06;;;;;;;8.43;6.90;;;;;;;16.57;83.25;99311.88;1621008;87;28276;-58
2022/08/07 00:08:32;;;;;;;7.62;6.92;;;;;;;16.51;82.76;99309.91;1620820;88;25710;-58
2022/08/07 00:10:58;;;;;;;7.58;6.80;;;;;;;16.50;83.06;99311.06;1619593;87;25665;-59
2022/08/07 00:13:25;;;;;;;12.90;7.90;;;;;;;16.49;83.02;99310.80;1618727;88;25741;-58
2022/08/07 00:15:52;;;;;;;10.32;7.85;;;;;;;16.45;82.82;99309.05;1618939;88;25514;-58
2022/08/07 00:18:23;;;;;;;13.53;7.47;;;;;;;16.34;82.81;99312.78;1618710;87;27426;-58
2022/08/07 00:20:54;;;;;;;8.95;6.97;;;;;;;16.21;82.87;99305.00;1618276;87;25633;-58
2022/08/07 00:23:20;;;;;;;8.75;7.15;;;;;;;16.06;83.24;99304.43;1620796;87;25594;-58
2022/08/07 00:25:47;;;;;;;8.58;6.72;;;;;;;15.98;83.39;99313.04;1621164;87;25746;-58
2022/08/07 00:28:13;;;;;;;7.90;7.10;;;;;;;16.01;83.66;99304.05;1620852;87;25605;-58
2022/08/07 00:30:40;;;;;;;9.03;7.20;;;;;;;16.06;83.51;99315.48;1619601;87;27524;-58
2022/08/07 00:33:06;;;;;;;8.73;6.75;;;;;;;16.05;83.60;99314.70;1618487;87;25474;-58
2022/08/07 00:35:33;;;;;;;8.58;7.12;;;;;;;16.06;83.40;99323.78;1618588;88;25506;-58
2022/08/07 00:38:00;;;;;;;9.15;7.05;;;;;;;16.03;83.37;99318.36;1618524;88;25822;-58
2022/08/07 00:40:28;;;;;;;10.05;7.12;;;;;;;16.01;83.06;99329.52;1618757;87;25515;-58
2022/08/07 00:42:55;;;;;;;8.73;6.83;;;;;;;15.95;83.46;99325.30;1623956;88;27398;-58
2022/08/07 00:45:22;;;;;;;9.05;6.78;;;;;;;15.90;83.07;99324.91;1630526;88;25695;-58
2022/08/07 00:47:50;;;;;;;8.90;6.78;;;;;;;15.83;83.25;99324.63;1630599;87;25736;-58
2022/08/07 00:50:16;;;;;;;7.70;6.55;;;;;;;15.87;83.29;99328.34;1630234;87;25681;-58
2022/08/07 00:52:43;;;;;;;9.40;6.95;;;;;;;15.77;83.16;99319.84;1630871;87;25656;-58
2022/08/07 00:55:10;;;;;;;11.88;7.40;;;;;;;15.78;83.34;99320.10;1630573;88;29615;-58
2022/08/07 00:57:36;;;;;;;10.10;7.55;;;;;;;15.77;83.48;99322.61;1630705;87;25525;-58
2022/08/07 01:00:07;;;;;;;8.40;7.45;;;;;;;15.79;83.58;99328.06;1630186;87;25474;-58
2022/08/07 01:02:34;;;;;;;9.38;7.35;;;;;;;15.79;83.40;99321.16;1630858;88;25912;-58
2022/08/07 01:05:05;;;;;;;8.10;7.30;;;;;;;15.81;83.35;99325.76;1630647;87;25483;-59
2022/08/07 01:07:32;;;;;;;8.23;6.83;;;;;;;15.78;83.21;99325.04;1630986;87;28245;-58
2022/08/07 01:09:59;;;;;;;7.95;7.15;;;;;;;15.78;83.34;99320.10;1630046;87;25486;-58
2022/08/07 01:12:26;;;;;;;8.15;7.35;;;;;;;15.71;82.82;99324.75;1626238;87;25672;-58
2022/08/07 01:14:53;;;;;;;9.60;7.12;;;;;;;15.67;83.37;99319.66;1630158;87;26272;-59
2022/08/07 01:17:19;;;;;;;9.13;6.95;;;;;;;15.65;83.32;99318.61;1606760;88;25730;-58
2022/08/07 01:19:46;;;;;;;10.48;7.33;;;;;;;15.65;83.51;99322.75;1631028;87;27612;-58
2022/08/07 01:22:13;;;;;;;10.72;7.35;;;;;;;15.65;83.50;99319.99;1630467;87;25470;-58
2022/08/07 01:24:41;;;;;;;11.28;8.15;;;;;;;15.66;83.39;99324.95;1630951;87;25545;-58
2022/08/07 01:27:08;;;;;;;9.43;7.75;;;;;;;15.64;83.52;99325.84;1631144;87;25739;-58
2022/08/07 01:29:36;;;;;;;10.60;8.00;;;;;;;15.59;83.27;99324.08;1630732;87;25964;-58
2022/08/07 01:32:04;;;;;;;12.10;8.55;;;;;;;15.53;83.73;99317.94;1630043;87;27471;-58
2022/08/07 01:34:32;;;;;;;23.90;8.80;;;;;;;15.58;83.84;99311.98;1630814;87;25673;-58
2022/08/07 01:37:00;;;;;;;10.70;7.67;;;;;;;15.59;83.69;99315.79;1630791;87;25723;-58
2022/08/07 01:39:28;;;;;;;11.78;8.20;;;;;;;15.61;83.58;99321.80;1630881;87;25686;-58
2022/08/07 01:41:55;;;;;;;12.70;8.33;;;;;;;15.59;83.58;99315.79;1630489;87;25677;-58
2022/08/07 01:44:21;;;;;;;11.25;8.83;;;;;;;15.46;83.63;99312.68;1620274;87;27449;-58
2022/08/07 01:46:48;;;;;;;9.73;8.20;;;;;;;15.32;83.74;99310.13;1618748;88;25503;-58
2022/08/07 01:49:15;;;;;;;12.58;8.75;;;;;;;15.21;83.97;99307.72;1618991;88;25478;-58
2022/08/07 01:51:45;;;;;;;10.28;8.58;;;;;;;15.12;84.29;99311.08;1618748;87;25755;-58
2022/08/07 01:54:15;;;;;;;11.03;8.15;;;;;;;15.05;84.40;99308.80;1620886;88;25685;-58
2022/08/07 01:57:03;;;;;;;9.68;8.20;;;;;;;15.04;84.41;99304.43;1595602;88;28224;-58
2022/08/07 01:59:57;;;;;;;10.35;8.18;;;;;;;15.07;84.40;99301.02;1620421;88;25809;-58
2022/08/07 02:02:38;;;;;;;9.55;7.58;;;;;;;15.05;84.48;99313.77;1619232;87;25718;-58
2022/08/07 02:05:29;;;;;;;8.98;7.05;;;;;;;14.93;83.82;99317.76;1618699;88;25752;-58
2022/08/07 02:08:04;;;;;;;8.83;7.45;;;;;;;14.77;84.35;99319.61;1618709;88;25657;-58
2022/08/07 02:10:36;;;;;;;8.95;7.58;;;;;;;14.72;84.72;99310.13;1617825;87;27565;-58
2022/08/07 02:13:10;;;;;;;9.43;7.42;;;;;;;14.73;84.67;99310.92;1618589;88;25994;-58
2022/08/07 02:15:43;;;;;;;10.28;7.50;;;;;;;14.74;84.82;99312.56;1619065;88;25715;-58
2022/08/07 02:18:13;;;;;;;9.88;7.10;;;;;;;14.67;84.41;99307.53;1619186;88;25490;-58
2022/08/07 02:20:49;;;;;;;10.13;7.23;;;;;;;14.55;84.35;99315.91;1618877;87;25779;-58
2022/08/07 02:23:22;;;;;;;11.50;7.60;;;;;;;14.54;84.85;99318.98;1617617;88;26923;-58
2022/08/07 02:25:58;;;;;;;9.38;7.15;;;;;;;14.58;84.98;99313.61;1620954;88;25451;-58
2022/08/07 02:28:29;;;;;;;8.88;6.90;;;;;;;14.59;84.36;99314.66;1620678;88;25720;-58
2022/08/07 02:31:03;;;;;;;10.95;8.25;;;;;;;14.56;84.64;99316.70;1595161;88;25753;-58
2022/08/07 02:33:32;;;;;;;8.95;7.25;;;;;;;14.54;84.80;99314.84;1618737;88;25528;-58
2022/08/07 02:36:00;;;;;;;11.12;8.63;;;;;;;14.50;84.57;99310.54;1619031;88;28126;-58
2022/08/07 02:38:31;;;;;;;14.55;8.20;;;;;;;14.37;84.47;99314.27;1618601;88;25498;-58
2022/08/07 02:40:59;;;;;;;11.80;8.20;;;;;;;14.27;85.09;99319.52;1618638;87;26281;-58
2022/08/07 02:43:27;;;;;;;11.10;8.28;;;;;;;14.29;85.34;99315.32;1623247;87;26566;-58
2022/08/07 02:45:57;;;;;;;9.63;8.25;;;;;;;14.33;84.87;99310.55;1631027;87;25455;-58
2022/08/07 02:48:24;;;;;;;9.70;7.83;;;;;;;14.28;84.82;99308.16;1630888;88;27374;-58
2022/08/07 02:50:54;;;;;;;10.65;7.75;;;;;;;14.33;84.93;99314.67;1630226;87;25510;-58
2022/08/07 02:53:29;;;;;;;10.80;8.40;;;;;;;14.30;84.85;99310.59;1631268;88;25447;-58
2022/08/07 02:55:58;;;;;;;9.20;7.72;;;;;;;14.29;84.91;99315.32;1630541;87;25893;-58
2022/08/07 02:58:27;;;;;;;9.53;7.53;;;;;;;14.29;84.85;99308.43;1630974;87;25487;-58
2022/08/07 03:00:57;;;;;;;10.48;8.20;;;;;;;14.27;84.95;99307.11;1630556;87;27397;-58
2022/08/07 03:03:26;;;;;;;10.23;7.40;;;;;;;14.28;85.06;99307.37;1630987;88;25715;-58
2022/08/07 03:05:54;;;;;;;11.15;8.08;;;;;;;14.15;84.40;99314.08;1630540;87;25640;-58
2022/08/07 03:08:22;;;;;;;11.68;8.03;;;;;;;14.05;84.93;99313.80;1630808;88;25903;-58
2022/08/07 03:10:49;;;;;;;10.20;7.75;;;;;;;14.06;85.06;99314.63;1606912;88;25749;-58
2022/08/07 03:13:17;;;;;;;10.13;7.55;;;;;;;14.09;85.27;99304.90;1630587;86;29521;-58
2022/08/07 03:15:45;;;;;;;10.63;7.80;;;;;;;14.13;85.19;99305.90;1630659;87;25597;-58
2022/08/07 03:18:13;;;;;;;9.10;7.40;;;;;;;14.17;85.17;99303.52;1630781;88;25671;-58
2022/08/07 03:20:40;;;;;;;8.75;7.30;;;;;;;14.21;84.82;99310.59;1630840;87;26701;-58
2022/08/07 03:23:08;;;;;;;9.85;7.22;;;;;;;14.13;84.75;99305.90;1630950;88;25446;-58
2022/08/07 03:25:38;;;;;;;10.05;7.25;;;;;;;14.09;84.87;99318.13;1630317;87;28249;-58
2022/08/07 03:28:08;;;;;;;8.60;7.67;;;;;;;13.99;84.54;99321.98;1631212;88;25498;-58
2022/08/07 03:30:35;;;;;;;8.87;7.33;;;;;;;13.87;84.96;99319.84;1631063;88;25724;-57
2022/08/07 03:33:03;;;;;;;9.63;7.85;;;;;;;13.89;85.30;99312.63;1630663;87;25772;-58
2022/08/07 03:35:30;;;;;;;9.73;7.78;;;;;;;13.91;85.50;99318.65;1606493;88;25741;-57
2022/08/07 03:38:01;;;;;;;9.38;7.87;;;;;;;13.91;85.60;99309.80;1630840;87;27478;-57
2022/08/07 03:40:29;;;;;;;9.75;8.33;;;;;;;13.95;85.71;99318.25;1630982;87;25482;-58
2022/08/07 03:42:56;;;;;;;12.75;9.20;;;;;;;13.96;86.04;99308.84;1630503;88;25633;-58
2022/08/07 03:45:26;;;;;;;11.83;9.53;;;;;;;14.00;86.25;99309.84;1618638;87;25686;-58
2022/08/07 03:47:53;;;;;;;10.97;9.13;;;;;;;14.03;86.42;99314.71;1619229;88;25650;-57
2022/08/07 03:50:21;;;;;;;10.20;8.45;;;;;;;14.04;86.17;99315.50;1618929;87;27577;-57
2022/08/07 03:52:49;;;;;;;9.98;8.80;;;;;;;14.09;86.37;99314.54;1618625;88;25687;-57
2022/08/07 03:55:16;;;;;;;13.43;8.58;;;;;;;14.15;86.27;99313.26;1618648;87;25685;-58
2022/08/07 03:57:43;;;;;;;14.20;10.15;;;;;;;14.18;86.21;99320.88;1618833;88;26060;-59
2022/08/07 04:00:11;;;;;;;10.98;9.38;;;;;;;14.23;86.40;99319.92;1593461;88;25702;-58
2022/08/07 04:02:37;;;;;;;14.18;10.03;;;;;;;14.26;86.30;99320.66;1618988;88;27453;-58
2022/08/07 04:05:06;;;;;;;12.10;10.10;;;;;;;14.31;86.66;99319.13;1618465;87;25928;-58
2022/08/07 04:07:32;;;;;;;14.68;10.05;;;;;;;14.36;86.99;99320.92;1618900;88;25799;-58
2022/08/07 04:10:01;;;;;;;11.63;9.53;;;;;;;14.43;87.34;99318.48;1618624;88;25785;-58
2022/08/07 04:12:30;;;;;;;14.23;9.93;;;;;;;14.45;86.94;99323.09;1618734;88;25461;-58
2022/08/07 04:14:58;;;;;;;11.45;10.05;;;;;;;14.42;87.68;99325.13;1617955;87;27377;-58
2022/08/07 04:17:24;;;;;;;12.63;9.88;;;;;;;14.42;87.68;99325.13;1618788;88;25511;-58
2022/08/07 04:19:50;;;;;;;11.43;9.73;;;;;;;14.53;87.66;99330.58;1618808;88;25451;-58
2022/08/07 04:22:17;;;;;;;11.90;9.10;;;;;;;14.53;87.66;99330.58;1619043;88;25917;-58
2022/08/07 04:24:45;;;;;;;11.12;8.45;;;;;;;14.52;87.95;99335.03;1618984;87;25673;-58
2022/08/07 04:27:11;;;;;;;12.45;9.80;;;;;;;14.52;88.12;99340.55;1618664;88;29616;-59
2022/08/07 04:29:37;;;;;;;11.38;8.95;;;;;;;14.56;88.09;99347.03;1618903;88;25518;-59
2022/08/07 04:32:05;;;;;;;10.32;8.85;;;;;;;14.66;87.69;99343.16;1617402;88;25477;-58
2022/08/07 04:34:32;;;;;;;12.43;9.23;;;;;;;14.72;87.45;99349.31;1581083;88;25862;-58
2022/08/07 04:36:59;;;;;;;11.73;9.05;;;;;;;14.82;87.53;99350.39;1606756;88;25611;-58
2022/08/07 04:39:25;;;;;;;11.20;9.05;;;;;;;14.86;87.15;99340.91;1604480;88;27417;-58
2022/08/07 04:41:51;;;;;;;10.32;8.48;;;;;;;14.88;87.38;99343.57;1605180;88;25964;-58
2022/08/07 04:44:17;;;;;;;10.40;9.15;;;;;;;14.98;87.57;99338.86;1610863;87;25774;-58
2022/08/07 04:47:04;;;;;;;10.13;8.93;;;;;;;15.08;87.39;99348.17;1619823;88;25776;-58
2022/08/07 04:49:43;;;;;;;11.85;9.53;;;;;;;15.24;87.38;99338.00;1616289;88;25639;-58
2022/08/07 04:52:38;;;;;;;14.43;9.78;;;;;;;15.37;87.31;99338.36;1617353;87;28455;-58
2022/08/07 04:55:29;;;;;;;11.88;8.90;;;;;;;15.51;87.07;99346.45;1618469;87;25647;-58
2022/08/07 04:58:19;;;;;;;11.68;8.93;;;;;;;15.58;86.46;99347.33;1616450;88;25826;-57
2022/08/07 05:01:00;;;;;;;10.58;9.48;;;;;;;15.64;86.39;99354.30;1616460;88;25845;-58
2022/08/07 05:03:58;;;;;;;10.85;9.60;;;;;;;15.74;86.50;99346.76;1617273;87;26128;-58
2022/08/07 05:06:32;;;;;;;12.85;8.13;;;;;;;15.83;85.90;99346.74;1617300;88;27485;-58
2022/08/07 05:09:07;;;;;;;9.98;8.63;;;;;;;15.93;85.73;99354.09;1618183;88;25668;-58
2022/08/07 05:11:54;;;;;;;9.75;8.63;;;;;;;16.03;85.55;99352.09;1603340;89;25477;-58
2022/08/07 05:14:27;;;;;;;10.63;8.50;;;;;;;16.15;85.58;99353.58;1612352;87;25740;-58
2022/08/07 05:17:00;;;;;;;11.28;8.08;;;;;;;16.28;85.34;99352.28;1628735;87;25660;-58
2022/08/07 05:19:31;;;;;;;11.28;8.78;;;;;;;16.37;84.27;99354.42;1630560;88;27378;-58
2022/08/07 05:21:59;;;;;;;8.43;7.42;;;;;;;16.37;84.25;99353.60;1629777;88;25515;-58
2022/08/07 05:24:28;;;;;;;8.00;7.22;;;;;;;16.40;84.13;99348.22;1630413;87;25522;-58
2022/08/07 05:26:58;;;;;;;8.55;7.65;;;;;;;16.33;83.63;99353.48;1630975;87;25747;-58
2022/08/07 05:29:27;;;;;;;10.45;6.62;;;;;;;16.40;84.28;99354.31;1627687;87;25764;-58
2022/08/07 05:31:55;;;;;;;9.80;7.05;;;;;;;16.51;83.25;99345.87;1631033;87;28164;-58
2022/08/07 05:34:24;;;;;;;7.87;6.47;;;;;;;16.56;83.81;99348.41;1629007;87;25661;-59
2022/08/07 05:36:53;;;;;;;9.55;6.33;;;;;;;16.56;82.57;99351.18;1618078;88;25784;-58
2022/08/07 05:39:22;;;;;;;7.12;6.42;;;;;;;16.49;82.65;99352.30;1615408;88;25733;-58
2022/08/07 05:41:49;;;;;;;10.88;7.40;;;;;;;16.45;83.31;99358.84;1619122;87;25433;-58
2022/08/07 05:44:20;;;;;;;8.65;6.87;;;;;;;16.41;83.22;99353.19;1615364;86;27433;-58
2022/08/07 05:46:49;;;;;;;8.68;6.28;;;;;;;16.38;82.95;99360.77;1604659;88;27246;-59
2022/08/07 05:49:17;;;;;;;8.13;6.85;;;;;;;16.39;83.41;99364.59;1606105;88;25652;-58
2022/08/07 05:51:45;;;;;;;9.03;6.55;;;;;;;16.36;83.07;99364.44;1605829;87;25967;-58
2022/08/07 05:54:12;;;;;;;9.18;7.37;;;;;;;16.37;82.82;99371.02;1610079;87;25453;-58
2022/08/07 05:56:42;;;;;;;8.18;6.75;;;;;;;16.39;83.02;99374.27;1606925;88;27539;-58
2022/08/07 05:59:13;;;;;;;10.32;7.60;;;;;;;16.48;82.98;99369.23;1604680;88;29105;-58
2022/08/07 06:01:40;;;;;;;10.98;6.95;;;;;;;16.53;82.69;99369.84;1604327;87;26575;-58
2022/08/07 06:04:08;;;;;;;9.83;6.87;;;;;;;16.59;82.57;99369.08;1608285;87;25691;-58
2022/08/07 06:06:36;;;;;;;9.38;7.50;;;;;;;16.64;81.85;99365.31;1606814;88;25523;-58
2022/08/07 06:09:04;;;;;;;11.12;8.45;;;;;;;16.68;81.93;99369.02;1605497;88;27485;-58
2022/08/07 06:11:33;;;;;;;10.63;8.25;;;;;;;16.82;82.09;99365.98;1607133;87;25629;-58
2022/08/07 06:14:00;;;;;;;12.73;8.63;;;;;;;16.91;80.21;99371.43;1607089;88;25659;-58
2022/08/07 06:16:32;;;;;;;11.22;7.60;;;;;;;17.06;82.13;99375.53;1606204;88;26587;-58
2022/08/07 06:19:00;;;;;;;10.95;8.13;;;;;;;17.13;80.13;99372.25;1605045;88;25798;-58
2022/08/07 06:21:28;;;;;;;10.63;7.95;;;;;;;17.22;79.69;99372.97;1605871;87;27519;-58
2022/08/07 06:23:58;;;;;;;10.38;7.28;;;;;;;17.37;79.43;99373.46;1604382;87;25825;-59
2022/08/07 06:26:28;;;;;;;8.73;6.97;;;;;;;17.49;77.72;99380.42;1604737;88;25787;-58
2022/08/07 06:28:58;;;;;;;10.20;6.45;;;;;;;17.61;77.94;99378.81;1581488;88;27017;-58
2022/08/07 06:31:25;;;;;;;9.60;6.37;;;;;;;17.75;78.23;99375.16;1597477;87;25623;-58
2022/08/07 06:33:51;;;;;;;6.15;5.08;;;;;;;17.92;77.37;99367.20;1615996;87;28301;-59
2022/08/07 06:36:17;;;;;;;11.22;5.72;;;;;;;18.08;76.42;99371.24;1619786;87;25927;-58
2022/08/07 06:38:44;;;;;;;9.73;6.15;;;;;;;18.01;76.85;99371.24;1611041;86;25736;-58
2022/08/07 06:41:19;;;;;;;6.47;5.03;;;;;;;18.10;76.38;99374.48;1593021;90;25744;-58
2022/08/07 06:43:47;;;;;;;8.45;5.20;;;;;;;18.16;75.91;99373.92;1625177;87;25700;-59
2022/08/07 06:46:14;;;;;;;9.60;4.05;;;;;;;18.28;76.03;99370.92;1628783;87;28195;-58
2022/08/07 06:48:42;;;;;;;7.03;4.83;;;;;;;18.33;75.28;99374.03;1626231;88;25602;-58
2022/08/07 06:51:16;;;;;;;6.15;4.12;;;;;;;18.44;75.72;99376.55;1625926;88;25496;-58
2022/08/07 06:53:44;;;;;;;6.92;4.55;;;;;;;18.56;74.29;99374.32;1624873;88;25805;-58
2022/08/07 06:56:12;;;;;;;7.12;4.65;;;;;;;18.57;74.93;99369.02;1621799;87;25661;-59
2022/08/07 06:58:40;;;;;;;4.60;4.03;;;;;;;18.77;74.10;99374.75;1639834;86;27435;-58
2022/08/07 07:01:10;;;;;;;6.45;4.50;;;;;;;18.83;73.51;99376.69;1640029;87;25845;-58
2022/08/07 07:03:40;;;;;;;5.17;4.13;;;;;;;18.88;72.61;99379.23;1626454;87;25641;-58
2022/08/07 07:06:08;;;;;;;5.30;4.55;;;;;;;19.09;72.39;99374.89;1624659;88;26728;-59
2022/08/07 07:08:35;;;;;;;5.60;4.12;;;;;;;19.42;71.99;99384.91;1624358;88;25694;-59
2022/08/07 07:11:04;;;;;;;4.92;3.58;;;;;;;19.67;71.75;99381.17;1624425;88;28300;-59
2022/08/07 07:13:37;;;;;;;4.87;3.92;;;;;;;19.67;70.83;99382.55;1624780;88;25298;-59
2022/08/07 07:16:09;;;;;;;4.15;3.37;;;;;;;19.90;69.63;99379.97;1624116;88;25680;-58
2022/08/07 07:18:43;;;;;;;4.15;3.65;;;;;;;19.97;69.07;99379.31;1620749;88;25731;-58
2022/08/07 07:21:18;;;;;;;3.70;3.00;;;;;;;20.06;69.63;99376.37;1626240;87;25488;-58
2022/08/07 07:23:45;;;;;;;3.98;3.00;;;;;;;20.10;67.76;99373.11;1625958;88;27393;-58
2022/08/07 07:26:15;;;;;;;3.87;2.80;;;;;;;20.13;67.52;99371.00;1626168;88;25514;-58
2022/08/07 07:28:52;;;;;;;4.12;3.00;;;;;;;20.22;67.28;99379.14;1626205;88;25508;-59
2022/08/07 07:31:30;;;;;;;4.55;3.42;;;;;;;20.53;66.48;99371.08;1630662;87;25920;-58
2022/08/07 07:34:01;;;;;;;3.90;2.30;;;;;;;20.92;66.77;99378.67;1639937;86;25693;-59
2022/08/07 07:36:29;;;;;;;3.00;2.22;;;;;;;20.75;65.10;99372.34;1633187;87;27404;-59
2022/08/07 07:38:56;;;;;;;3.02;2.15;;;;;;;20.75;63.83;99375.13;1626073;88;25821;-58
2022/08/07 07:41:25;;;;;;;2.72;2.08;;;;;;;20.78;63.71;99363.86;1626007;87;25515;-59
2022/08/07 07:43:53;;;;;;;3.92;2.75;;;;;;;20.65;63.17;99375.13;1622516;87;25888;-58
2022/08/07 07:46:22;;;;;;;3.08;2.77;;;;;;;20.48;63.91;99369.96;1629629;88;25518;-58
2022/08/07 07:48:50;;;;;;;3.70;2.25;;;;;;;20.58;65.44;99365.81;1630582;87;26002;-59
2022/08/07 07:51:19;;;;;;;2.20;2.00;;;;;;;20.86;62.51;99370.36;1630441;88;25754;-59
2022/08/07 07:53:47;;;;;;;3.62;2.72;;;;;;;20.61;62.76;99365.88;1628133;87;25731;-58
2022/08/07 07:56:15;;;;;;;2.92;2.72;;;;;;;20.58;63.91;99366.60;1630477;87;25788;-58
2022/08/07 07:58:43;;;;;;;2.80;2.45;;;;;;;20.64;63.86;99372.10;1631285;86;25703;-58
2022/08/07 08:01:11;;;;;;;3.20;2.90;;;;;;;20.80;62.94;99372.64;1637908;87;27453;-60
2022/08/07 08:03:40;;;;;;;3.45;2.80;;;;;;;20.77;62.59;99375.58;1642167;87;25530;-58
2022/08/07 08:06:07;;;;;;;3.33;3.02;;;;;;;21.02;62.36;99368.93;1631036;87;25668;-58
2022/08/07 08:08:40;;;;;;;4.22;3.10;;;;;;;20.93;62.59;99373.34;1630550;87;25801;-59
2022/08/07 08:11:10;;;;;;;3.17;2.87;;;;;;;20.71;62.67;99377.61;1630931;87;25729;-58
2022/08/07 08:13:41;;;;;;;4.23;2.80;;;;;;;20.52;63.06;99371.66;1627367;88;28214;-58
2022/08/07 08:16:09;;;;;;;4.15;3.00;;;;;;;20.52;63.71;99368.08;1631549;87;26013;-58
2022/08/07 08:18:36;;;;;;;4.22;2.80;;;;;;;20.58;63.65;99372.17;1642338;87;25659;-58
2022/08/07 08:27:03;;;;;;;5.08;2.95;;;;;;;20.58;63.14;99369.99;1642396;87;25741;-58
2022/08/07 08:29:07;;;;;;;3.47;2.75;;;;;;;20.44;65.01;99369.91;1604614;88;25822;-59
2022/08/07 08:31:36;;;;;;;3.62;2.62;;;;;;;20.56;64.40;99364.78;1617834;88;25492;-58
2022/08/07 08:34:05;;;;;;;2.47;2.22;;;;;;;20.33;63.91;99359.09;1611279;87;25738;-58
2022/08/07 08:36:33;;;;;;;3.35;2.25;;;;;;;20.38;64.26;99368.56;1626325;88;25705;-58
2022/08/07 08:39:18;;;;;;;3.77;2.02;;;;;;;20.41;63.60;99360.88;1614844;87;27372;-58
2022/08/07 08:41:49;;;;;;;2.50;2.30;;;;;;;20.81;63.93;99360.31;1602775;89;25703;-57
2022/08/07 08:44:50;;;;;;;2.47;2.27;;;;;;;21.24;61.56;99362.39;1608589;88;25620;-58
2022/08/07 08:47:47;;;;;;;1.42;1.15;;;;;;;21.59;60.19;99364.22;1615602;88;25800;-58
2022/08/07 08:50:28;;;;;;;2.67;1.92;;;;;;;21.85;57.79;99362.69;1616229;88;25788;-58
2022/08/07 08:53:18;;;;;;;3.15;1.80;;;;;;;22.27;58.54;99360.11;1617727;87;27542;-58
2022/08/07 08:55:57;;;;;;;3.22;2.00;;;;;;;22.86;57.16;99358.92;1601358;88;25668;-57
2022/08/07 08:58:44;;;;;;;3.17;1.90;;;;;;;22.79;55.91;99365.22;1593673;90;25784;-57
2022/08/07 09:01:42;;;;;;;2.17;1.98;;;;;;;22.46;56.51;99361.98;1593517;88;27939;-57
2022/08/07 09:04:23;;;;;;;3.47;2.12;;;;;;;22.08;56.01;99364.64;1632030;87;25801;-57
2022/08/07 09:07:09;;;;;;;3.30;2.30;;;;;;;21.64;56.99;99368.08;1631692;87;27421;-57
2022/08/07 09:10:02;;;;;;;4.35;2.42;;;;;;;21.32;58.10;99366.91;1627410;87;25852;-57
2022/08/07 09:12:51;;;;;;;3.12;2.42;;;;;;;20.96;59.64;99373.19;1591103;90;25708;-57
2022/08/07 09:16:07;;;;;;;4.62;3.20;;;;;;;20.90;60.55;99369.86;1631855;87;25748;-57
2022/08/07 09:19:07;;;;;;;5.55;2.70;;;;;;;20.73;60.87;99371.09;1632007;87;25702;-58
2022/08/07 09:21:42;;;;;;;3.47;2.50;;;;;;;20.51;61.28;99365.06;1630350;86;27689;-57
2022/08/07 09:24:26;;;;;;;4.12;2.50;;;;;;;20.29;62.39;99366.78;1605884;88;25563;-57
2022/08/07 09:27:04;;;;;;;3.35;2.50;;;;;;;20.14;63.36;99371.21;1606596;89;25550;-57
2022/08/07 09:29:39;;;;;;;4.10;2.77;;;;;;;20.03;63.10;99374.31;1606276;89;25735;-57
2022/08/07 09:32:24;;;;;;;3.37;3.00;;;;;;;20.08;63.90;99369.05;1609754;87;25799;-57
2022/08/07 09:35:01;;;;;;;4.05;3.37;;;;;;;19.93;63.88;99368.13;1633512;87;26657;-57
2022/08/07 09:37:59;;;;;;;5.47;3.30;;;;;;;19.83;64.53;99371.42;1634546;87;25537;-57
2022/08/07 09:40:58;;;;;;;6.15;3.52;;;;;;;19.80;64.64;99369.36;1634787;87;25587;-57
2022/08/07 09:44:04;;;;;;;4.40;2.98;;;;;;;19.86;64.66;99369.91;1632049;87;26045;-57
2022/08/07 09:46:48;;;;;;;5.95;3.10;;;;;;;19.78;65.15;99368.33;1632491;87;25514;-57
2022/08/07 09:49:56;;;;;;;3.15;2.85;;;;;;;19.76;65.41;99367.08;1632326;87;28159;-57
2022/08/07 09:52:51;;;;;;;3.47;3.00;;;;;;;19.79;65.81;99368.57;1579935;90;25574;-57
2022/08/07 09:55:57;;;;;;;4.35;2.87;;;;;;;19.84;65.85;99366.11;1578613;90;25669;-58
2022/08/07 09:58:47;;;;;;;3.42;2.77;;;;;;;19.78;65.14;99355.03;1525362;92;25895;-58
2022/08/07 10:01:50;;;;;;;3.62;2.98;;;;;;;19.69;64.74;99356.60;1556138;89;25797;-57
2022/08/07 10:04:43;;;;;;;3.37;3.05;;;;;;;19.53;65.41;99356.58;1557052;90;27672;-57
2022/08/07 10:07:39;;;;;;;3.47;3.10;;;;;;;19.44;65.72;99362.31;1574947;90;25652;-61
2022/08/07 10:10:34;;;;;;;4.92;3.33;;;;;;;19.26;66.79;99354.90;1587731;89;25810;-58
2022/08/07 10:13:38;;;;;;;3.37;3.08;;;;;;;19.06;67.55;99349.18;1588416;90;25848;-65
2022/08/07 10:16:22;;;;;;;6.28;3.25;;;;;;;18.93;67.84;99345.63;1588937;89;25511;-58
2022/08/07 10:19:38;;;;;;;4.62;2.65;;;;;;;18.89;67.74;99341.39;1587797;90;27497;-65
2022/08/07 10:22:36;;;;;;;3.83;3.20;;;;;;;18.84;66.89;99347.18;1590890;86;26553;-58
2022/08/07 10:25:31;;;;;;;3.33;3.02;;;;;;;18.75;67.15;99345.13;1660790;86;25445;-58
2022/08/07 10:28:31;;;;;;;4.22;3.35;;;;;;;18.67;67.12;99340.77;1632613;87;25764;-58
2022/08/07 10:31:17;;;;;;;;;;;;;;;18.62;67.53;99338.22;1585516;90;25716;-58
2022/08/07 10:34:06;;;;;;;3.87;3.00;;;;;;;18.67;67.22;99339.38;1533518;93;27443;-59
2022/08/07 10:36:49;;;;;;;5.17;2.90;;;;;;;18.65;66.97;99338.91;1589691;90;25858;-58
2022/08/07 10:39:43;;;;;;;3.65;2.70;;;;;;;18.63;66.70;99341.25;1588344;88;25602;-58
2022/08/07 10:42:18;;;;;;;3.80;3.08;;;;;;;18.71;66.54;99336.69;1590080;89;25803;-58
2022/08/07 10:45:12;;;;;;;2.75;2.50;;;;;;;18.84;66.30;99335.25;1592478;87;25600;-58
2022/08/07 10:47:50;;;;;;;3.15;2.50;;;;;;;18.91;64.85;99330.72;1589944;90;27582;-59
2022/08/07 10:50:33;;;;;;;3.87;2.60;;;;;;;18.99;64.63;99330.91;1589106;90;25845;-58
2022/08/07 10:53:08;;;;;;;2.40;2.20;;;;;;;19.11;64.25;99328.70;1589959;90;25748;-58
2022/08/07 10:55:51;;;;;;;3.70;2.77;;;;;;;19.22;63.75;99323.41;1589692;90;26263;-59
2022/08/07 10:58:44;;;;;;;4.83;2.67;;;;;;;19.35;63.87;99313.86;1590319;88;25531;-59
2022/08/07 11:01:37;;;;;;;3.45;3.02;;;;;;;19.49;63.85;99310.61;1574183;88;28352;-58
2022/08/07 11:04:24;;;;;;;3.33;3.02;;;;;;;19.69;63.51;99309.34;1590081;90;25810;-58
2022/08/07 11:07:02;;;;;;;3.00;2.55;;;;;;;19.78;62.68;99316.88;1603161;87;25734;-58
2022/08/07 11:09:41;;;;;;;2.30;2.10;;;;;;;19.80;62.73;99308.99;1620075;87;26585;-59
2022/08/07 11:12:24;;;;;;;3.87;2.30;;;;;;;19.87;62.46;99302.81;1648844;87;25737;-59
2022/08/07 11:14:58;;;;;;;2.50;2.00;;;;;;;20.02;61.90;99307.33;1648630;86;28279;-58
2022/08/07 11:17:38;;;;;;;3.00;2.10;;;;;;;20.15;61.01;99311.60;1651324;85;25681;-59
2022/08/07 11:20:26;;;;;;;2.40;2.08;;;;;;;20.19;60.90;99311.70;1660782;86;25609;-59
2022/08/07 11:23:23;;;;;;;5.12;2.25;;;;;;;20.24;61.20;99310.61;1648017;86;26818;-59
2022/08/07 11:26:15;;;;;;;2.47;1.90;;;;;;;20.28;60.16;99309.52;1660878;86;25602;-58
2022/08/07 11:29:02;;;;;;;1.90;1.70;;;;;;;20.33;59.13;99307.61;1660021;85;27572;-58
2022/08/07 11:32:06;;;;;;;2.92;2.08;;;;;;;20.35;59.43;99312.23;1660764;86;25678;-59
2022/08/07 11:34:53;;;;;;;3.98;1.90;;;;;;;20.42;59.28;99310.42;1655784;86;25507;-59
2022/08/07 11:37:50;;;;;;;3.75;2.15;;;;;;;20.47;59.31;99305.15;1659828;85;25742;-58
2022/08/07 11:40:39;;;;;;;2.72;1.85;;;;;;;20.46;58.08;99306.30;1660867;86;25441;-59
2022/08/07 11:43:30;;;;;;;3.27;2.10;;;;;;;20.50;57.34;99299.42;1660750;86;27472;-58
2022/08/07 11:46:11;;;;;;;4.67;1.90;;;;;;;20.65;58.26;99289.38;1660563;86;25956;-59
2022/08/07 11:48:55;;;;;;;2.17;1.47;;;;;;;20.77;57.21;99288.42;1653930;85;25697;-58
2022/08/07 11:51:56;;;;;;;2.45;1.75;;;;;;;20.96;55.76;99282.06;1659338;85;25909;-59
2022/08/07 11:55:06;;;;;;;1.70;1.57;;;;;;;21.01;55.56;99277.56;1633703;87;25711;-59
2022/08/07 11:58:02;;;;;;;2.25;1.40;;;;;;;21.12;55.14;99280.55;1631881;87;28271;-58
2022/08/07 12:01:06;;;;;;;3.67;2.17;;;;;;;21.24;53.33;99279.56;1653951;85;26225;-59
2022/08/07 12:03:59;;;;;;;3.87;1.60;;;;;;;21.46;53.67;99273.55;1642866;87;25630;-58
2022/08/07 12:06:53;;;;;;;1.92;1.30;;;;;;;21.66;52.46;99271.48;1643040;86;25870;-58
2022/08/07 12:09:44;;;;;;;1.47;1.30;;;;;;;21.99;53.16;99272.01;1648197;85;25764;-59
2022/08/07 12:12:19;;;;;;;2.55;1.20;;;;;;;22.26;50.61;99267.78;1662018;86;27414;-58
2022/08/07 12:14:56;;;;;;;1.37;1.17;;;;;;;22.46;50.63;99266.23;1662064;86;25687;-58